sensor_id;sensor_type;location;lat;lon;timestamp;P1;durP1;ratioP1;P2;durP2;ratioP2
10150;SDS011;5116;52.318;4.644;2023-02-15T00:00:05;18.13;;;12.40;;
10150;SDS011;5116;52.318;4.644;2023-02-15T00:02:34;20.50;;;13.63;;
10150;SDS011;5116;52.318;4.644;2023-02-15T00:05:02;16.80;;;12.57;;
10150;SDS011;5116;52.318;4.644;2023-02-15T00:07:31;18.77;;;13.67;;
10150;SDS011;5116;52.318;4.644;2023-02-15T00:09:59;19.77;;;12.83;;
10150;SDS011;5116;52.318;4.644;2023-02-15T00:12:27;21.40;;;13.03;;
10150;SDS011;5116;52.318;4.644;2023-02-15T00:14:56;21.57;;;12.97;;
10150;SDS011;5116;52.318;4.644;2023-02-15T00:17:26;21.80;;;12.83;;
10150;SDS011;5116;52.318;4.644;2023-02-15T00:19:53;24.80;;;14.33;;
10150;SDS011;5116;52.318;4.644;2023-02-15T00:22:21;23.07;;;12.60;;
10150;SDS011;5116;52.318;4.644;2023-02-15T00:24:49;20.77;;;12.17;;
10150;SDS011;5116;52.318;4.644;2023-02-15T00:27:16;19.63;;;12.33;;
10150;SDS011;5116;52.318;4.644;2023-02-15T00:29:44;23.83;;;12.93;;
10150;SDS011;5116;52.318;4.644;2023-02-15T00:32:12;20.33;;;14.00;;
10150;SDS011;5116;52.318;4.644;2023-02-15T00:34:39;18.63;;;12.87;;
10150;SDS011;5116;52.318;4.644;2023-02-15T00:37:07;18.13;;;12.83;;
10150;SDS011;5116;52.318;4.644;2023-02-15T00:39:34;20.97;;;13.33;;
10150;SDS011;5116;52.318;4.644;2023-02-15T00:42:02;17.83;;;12.13;;
10150;SDS011;5116;52.318;4.644;2023-02-15T00:44:29;17.43;;;12.57;;
10150;SDS011;5116;52.318;4.644;2023-02-15T00:46:57;22.60;;;12.43;;
10150;SDS011;5116;52.318;4.644;2023-02-15T00:49:24;19.60;;;12.87;;
10150;SDS011;5116;52.318;4.644;2023-02-15T00:51:52;18.77;;;12.27;;
10150;SDS011;5116;52.318;4.644;2023-02-15T00:54:20;16.53;;;11.90;;
10150;SDS011;5116;52.318;4.644;2023-02-15T00:56:49;20.60;;;13.27;;
10150;SDS011;5116;52.318;4.644;2023-02-15T00:59:16;20.77;;;13.60;;
10150;SDS011;5116;52.318;4.644;2023-02-15T01:01:46;16.23;;;11.00;;
10150;SDS011;5116;52.318;4.644;2023-02-15T01:04:14;18.97;;;13.73;;
10150;SDS011;5116;52.318;4.644;2023-02-15T01:06:41;16.20;;;10.93;;
10150;SDS011;5116;52.318;4.644;2023-02-15T01:09:09;22.53;;;13.07;;
10150;SDS011;5116;52.318;4.644;2023-02-15T01:11:36;20.90;;;12.73;;
10150;SDS011;5116;52.318;4.644;2023-02-15T01:14:04;18.17;;;12.77;;
10150;SDS011;5116;52.318;4.644;2023-02-15T01:16:32;18.83;;;12.53;;
10150;SDS011;5116;52.318;4.644;2023-02-15T01:18:59;17.60;;;11.67;;
10150;SDS011;5116;52.318;4.644;2023-02-15T01:21:30;19.67;;;12.47;;
10150;SDS011;5116;52.318;4.644;2023-02-15T01:24:01;16.90;;;11.10;;
10150;SDS011;5116;52.318;4.644;2023-02-15T01:26:29;19.40;;;12.03;;
10150;SDS011;5116;52.318;4.644;2023-02-15T01:28:57;14.07;;;10.37;;
10150;SDS011;5116;52.318;4.644;2023-02-15T01:31:25;15.70;;;11.23;;
10150;SDS011;5116;52.318;4.644;2023-02-15T01:33:52;15.10;;;11.13;;
10150;SDS011;5116;52.318;4.644;2023-02-15T01:36:20;15.83;;;11.23;;
10150;SDS011;5116;52.318;4.644;2023-02-15T01:38:48;17.80;;;12.63;;
10150;SDS011;5116;52.318;4.644;2023-02-15T01:41:16;19.83;;;12.43;;
10150;SDS011;5116;52.318;4.644;2023-02-15T01:43:50;18.10;;;11.57;;
10150;SDS011;5116;52.318;4.644;2023-02-15T01:46:19;16.10;;;10.80;;
10150;SDS011;5116;52.318;4.644;2023-02-15T01:48:49;18.07;;;11.17;;
10150;SDS011;5116;52.318;4.644;2023-02-15T01:51:18;23.10;;;12.23;;
10150;SDS011;5116;52.318;4.644;2023-02-15T01:53:56;21.30;;;12.53;;
10150;SDS011;5116;52.318;4.644;2023-02-15T01:56:25;17.93;;;11.20;;
10150;SDS011;5116;52.318;4.644;2023-02-15T01:58:55;18.73;;;12.43;;
10150;SDS011;5116;52.318;4.644;2023-02-15T02:01:24;20.10;;;11.10;;
10150;SDS011;5116;52.318;4.644;2023-02-15T02:03:57;18.00;;;10.63;;
10150;SDS011;5116;52.318;4.644;2023-02-15T02:06:29;16.50;;;10.50;;
10150;SDS011;5116;52.318;4.644;2023-02-15T02:08:56;17.43;;;11.90;;
10150;SDS011;5116;52.318;4.644;2023-02-15T02:11:24;19.07;;;11.83;;
10150;SDS011;5116;52.318;4.644;2023-02-15T02:13:52;13.27;;;10.00;;
10150;SDS011;5116;52.318;4.644;2023-02-15T02:35:35;15.77;;;11.13;;
10150;SDS011;5116;52.318;4.644;2023-02-15T02:43:29;13.70;;;9.90;;
10150;SDS011;5116;52.318;4.644;2023-02-15T02:46:00;14.60;;;10.43;;
10150;SDS011;5116;52.318;4.644;2023-02-15T02:48:30;15.63;;;10.03;;
10150;SDS011;5116;52.318;4.644;2023-02-15T02:50:59;15.40;;;9.40;;
10150;SDS011;5116;52.318;4.644;2023-02-15T02:53:27;13.67;;;10.63;;
10150;SDS011;5116;52.318;4.644;2023-02-15T02:55:59;17.13;;;10.87;;
10150;SDS011;5116;52.318;4.644;2023-02-15T02:58:31;13.27;;;9.37;;
10150;SDS011;5116;52.318;4.644;2023-02-15T03:01:34;14.27;;;10.33;;
10150;SDS011;5116;52.318;4.644;2023-02-15T03:03:59;15.90;;;9.60;;
10150;SDS011;5116;52.318;4.644;2023-02-15T03:06:39;14.80;;;10.03;;
10150;SDS011;5116;52.318;4.644;2023-02-15T03:09:12;14.47;;;10.10;;
10150;SDS011;5116;52.318;4.644;2023-02-15T03:11:42;17.47;;;10.57;;
10150;SDS011;5116;52.318;4.644;2023-02-15T03:14:14;10.90;;;8.93;;
10150;SDS011;5116;52.318;4.644;2023-02-15T03:16:43;15.40;;;9.77;;
10150;SDS011;5116;52.318;4.644;2023-02-15T03:19:13;13.80;;;9.63;;
10150;SDS011;5116;52.318;4.644;2023-02-15T03:21:50;14.47;;;10.13;;
10150;SDS011;5116;52.318;4.644;2023-02-15T03:24:28;12.90;;;9.53;;
10150;SDS011;5116;52.318;4.644;2023-02-15T03:26:58;13.97;;;10.07;;
10150;SDS011;5116;52.318;4.644;2023-02-15T03:29:28;12.00;;;9.47;;
10150;SDS011;5116;52.318;4.644;2023-02-15T03:32:00;15.83;;;10.87;;
10150;SDS011;5116;52.318;4.644;2023-02-15T03:34:28;13.83;;;9.97;;
10150;SDS011;5116;52.318;4.644;2023-02-15T03:37:10;14.37;;;9.40;;
10150;SDS011;5116;52.318;4.644;2023-02-15T03:39:47;13.50;;;9.10;;
10150;SDS011;5116;52.318;4.644;2023-02-15T03:42:26;13.80;;;9.43;;
10150;SDS011;5116;52.318;4.644;2023-02-15T03:47:28;14.97;;;9.47;;
10150;SDS011;5116;52.318;4.644;2023-02-15T03:49:59;14.47;;;9.73;;
10150;SDS011;5116;52.318;4.644;2023-02-15T03:52:28;16.13;;;9.40;;
10150;SDS011;5116;52.318;4.644;2023-02-15T03:54:56;15.50;;;11.03;;
10150;SDS011;5116;52.318;4.644;2023-02-15T03:57:25;13.90;;;9.30;;
10150;SDS011;5116;52.318;4.644;2023-02-15T04:03:06;13.03;;;8.93;;
10150;SDS011;5116;52.318;4.644;2023-02-15T04:05:35;11.63;;;9.53;;
10150;SDS011;5116;52.318;4.644;2023-02-15T04:08:03;15.67;;;10.33;;
10150;SDS011;5116;52.318;4.644;2023-02-15T04:10:31;15.47;;;10.53;;
10150;SDS011;5116;52.318;4.644;2023-02-15T04:13:18;14.47;;;9.17;;
10150;SDS011;5116;52.318;4.644;2023-02-15T04:15:45;12.50;;;8.33;;
10150;SDS011;5116;52.318;4.644;2023-02-15T04:18:35;13.80;;;9.13;;
10150;SDS011;5116;52.318;4.644;2023-02-15T04:21:22;12.67;;;9.63;;
10150;SDS011;5116;52.318;4.644;2023-02-15T04:24:09;10.83;;;8.80;;
10150;SDS011;5116;52.318;4.644;2023-02-15T04:26:55;15.73;;;9.27;;
10150;SDS011;5116;52.318;4.644;2023-02-15T04:29:23;16.13;;;8.33;;
10150;SDS011;5116;52.318;4.644;2023-02-15T04:31:52;12.80;;;8.73;;
10150;SDS011;5116;52.318;4.644;2023-02-15T04:34:20;14.80;;;8.70;;
10150;SDS011;5116;52.318;4.644;2023-02-15T04:36:47;17.17;;;10.47;;
10150;SDS011;5116;52.318;4.644;2023-02-15T04:39:17;11.50;;;8.23;;
10150;SDS011;5116;52.318;4.644;2023-02-15T04:41:46;10.20;;;7.87;;
10150;SDS011;5116;52.318;4.644;2023-02-15T04:44:14;13.87;;;9.80;;
10150;SDS011;5116;52.318;4.644;2023-02-15T04:46:41;14.17;;;9.23;;
10150;SDS011;5116;52.318;4.644;2023-02-15T04:49:09;12.87;;;9.03;;
10150;SDS011;5116;52.318;4.644;2023-02-15T04:51:36;12.70;;;8.37;;
10150;SDS011;5116;52.318;4.644;2023-02-15T04:54:04;10.87;;;8.47;;
10150;SDS011;5116;52.318;4.644;2023-02-15T04:56:31;12.37;;;9.67;;
10150;SDS011;5116;52.318;4.644;2023-02-15T04:59:01;18.40;;;10.10;;
10150;SDS011;5116;52.318;4.644;2023-02-15T05:01:29;12.93;;;10.00;;
10150;SDS011;5116;52.318;4.644;2023-02-15T05:03:57;15.00;;;9.57;;
10150;SDS011;5116;52.318;4.644;2023-02-15T05:06:24;14.17;;;9.33;;
10150;SDS011;5116;52.318;4.644;2023-02-15T05:08:52;11.07;;;9.37;;
10150;SDS011;5116;52.318;4.644;2023-02-15T05:11:19;13.63;;;8.93;;
10150;SDS011;5116;52.318;4.644;2023-02-15T05:13:47;11.03;;;8.53;;
10150;SDS011;5116;52.318;4.644;2023-02-15T05:16:15;13.47;;;8.63;;
10150;SDS011;5116;52.318;4.644;2023-02-15T05:18:42;10.57;;;8.70;;
10150;SDS011;5116;52.318;4.644;2023-02-15T05:21:10;13.10;;;9.13;;
10150;SDS011;5116;52.318;4.644;2023-02-15T05:23:37;12.27;;;8.83;;
10150;SDS011;5116;52.318;4.644;2023-02-15T05:26:05;11.50;;;8.17;;
10150;SDS011;5116;52.318;4.644;2023-02-15T05:28:51;16.37;;;8.33;;
10150;SDS011;5116;52.318;4.644;2023-02-15T05:31:19;11.00;;;8.27;;
10150;SDS011;5116;52.318;4.644;2023-02-15T05:33:47;11.37;;;8.30;;
10150;SDS011;5116;52.318;4.644;2023-02-15T05:36:14;12.07;;;8.47;;
10150;SDS011;5116;52.318;4.644;2023-02-15T05:38:42;11.53;;;8.03;;
10150;SDS011;5116;52.318;4.644;2023-02-15T05:41:10;12.93;;;8.50;;
10150;SDS011;5116;52.318;4.644;2023-02-15T05:43:38;14.17;;;9.27;;
10150;SDS011;5116;52.318;4.644;2023-02-15T05:46:06;12.50;;;8.37;;
10150;SDS011;5116;52.318;4.644;2023-02-15T05:48:34;12.00;;;8.07;;
10150;SDS011;5116;52.318;4.644;2023-02-15T05:51:03;13.63;;;8.83;;
10150;SDS011;5116;52.318;4.644;2023-02-15T05:53:31;11.57;;;7.90;;
10150;SDS011;5116;52.318;4.644;2023-02-15T05:55:59;11.87;;;8.30;;
10150;SDS011;5116;52.318;4.644;2023-02-15T05:58:30;12.50;;;8.33;;
10150;SDS011;5116;52.318;4.644;2023-02-15T06:00:58;9.10;;;7.00;;
10150;SDS011;5116;52.318;4.644;2023-02-15T06:03:25;11.57;;;7.70;;
10150;SDS011;5116;52.318;4.644;2023-02-15T06:05:55;11.80;;;8.13;;
10150;SDS011;5116;52.318;4.644;2023-02-15T06:08:22;10.30;;;7.03;;
10150;SDS011;5116;52.318;4.644;2023-02-15T06:10:50;12.17;;;7.20;;
10150;SDS011;5116;52.318;4.644;2023-02-15T06:13:17;10.97;;;7.73;;
10150;SDS011;5116;52.318;4.644;2023-02-15T06:15:45;15.17;;;9.00;;
10150;SDS011;5116;52.318;4.644;2023-02-15T06:18:12;10.80;;;7.73;;
10150;SDS011;5116;52.318;4.644;2023-02-15T06:20:40;11.27;;;8.23;;
10150;SDS011;5116;52.318;4.644;2023-02-15T06:23:07;14.53;;;8.53;;
10150;SDS011;5116;52.318;4.644;2023-02-15T06:25:35;14.20;;;8.53;;
10150;SDS011;5116;52.318;4.644;2023-02-15T06:28:05;10.30;;;6.70;;
10150;SDS011;5116;52.318;4.644;2023-02-15T06:30:33;10.70;;;8.00;;
10150;SDS011;5116;52.318;4.644;2023-02-15T06:33:00;11.90;;;8.27;;
10150;SDS011;5116;52.318;4.644;2023-02-15T06:35:28;13.67;;;8.47;;
10150;SDS011;5116;52.318;4.644;2023-02-15T06:37:56;9.67;;;6.87;;
10150;SDS011;5116;52.318;4.644;2023-02-15T06:40:23;9.20;;;7.10;;
10150;SDS011;5116;52.318;4.644;2023-02-15T06:42:51;11.30;;;7.77;;
10150;SDS011;5116;52.318;4.644;2023-02-15T06:45:18;9.70;;;7.17;;
10150;SDS011;5116;52.318;4.644;2023-02-15T06:47:46;11.67;;;7.83;;
10150;SDS011;5116;52.318;4.644;2023-02-15T06:50:13;8.50;;;7.03;;
10150;SDS011;5116;52.318;4.644;2023-02-15T06:52:41;11.67;;;7.80;;
10150;SDS011;5116;52.318;4.644;2023-02-15T06:55:09;11.17;;;7.80;;
10150;SDS011;5116;52.318;4.644;2023-02-15T06:57:38;14.50;;;8.93;;
10150;SDS011;5116;52.318;4.644;2023-02-15T07:00:07;17.40;;;8.17;;
10150;SDS011;5116;52.318;4.644;2023-02-15T07:02:35;11.07;;;7.07;;
10150;SDS011;5116;52.318;4.644;2023-02-15T07:05:03;12.20;;;8.27;;
10150;SDS011;5116;52.318;4.644;2023-02-15T07:07:31;11.60;;;7.27;;
10150;SDS011;5116;52.318;4.644;2023-02-15T07:09:59;12.13;;;7.37;;
10150;SDS011;5116;52.318;4.644;2023-02-15T07:12:26;11.43;;;8.13;;
10150;SDS011;5116;52.318;4.644;2023-02-15T07:15:18;11.70;;;8.37;;
10150;SDS011;5116;52.318;4.644;2023-02-15T07:17:49;9.43;;;7.17;;
10150;SDS011;5116;52.318;4.644;2023-02-15T07:20:18;11.93;;;8.00;;
10150;SDS011;5116;52.318;4.644;2023-02-15T07:22:46;13.13;;;8.03;;
10150;SDS011;5116;52.318;4.644;2023-02-15T07:25:13;11.40;;;8.30;;
10150;SDS011;5116;52.318;4.644;2023-02-15T07:27:41;8.70;;;7.83;;
10150;SDS011;5116;52.318;4.644;2023-02-15T07:30:13;10.70;;;7.10;;
10150;SDS011;5116;52.318;4.644;2023-02-15T07:32:40;12.57;;;8.83;;
10150;SDS011;5116;52.318;4.644;2023-02-15T07:35:30;9.40;;;6.93;;
10150;SDS011;5116;52.318;4.644;2023-02-15T07:37:59;10.13;;;6.93;;
10150;SDS011;5116;52.318;4.644;2023-02-15T07:40:33;9.50;;;6.83;;
10150;SDS011;5116;52.318;4.644;2023-02-15T07:43:01;9.67;;;6.87;;
10150;SDS011;5116;52.318;4.644;2023-02-15T07:45:28;13.40;;;7.73;;
10150;SDS011;5116;52.318;4.644;2023-02-15T07:47:59;11.90;;;8.73;;
10150;SDS011;5116;52.318;4.644;2023-02-15T07:50:27;11.67;;;7.63;;
10150;SDS011;5116;52.318;4.644;2023-02-15T07:52:55;12.63;;;7.47;;
10150;SDS011;5116;52.318;4.644;2023-02-15T07:55:22;10.40;;;6.50;;
10150;SDS011;5116;52.318;4.644;2023-02-15T07:57:51;9.23;;;6.80;;
10150;SDS011;5116;52.318;4.644;2023-02-15T08:00:20;10.07;;;7.00;;
10150;SDS011;5116;52.318;4.644;2023-02-15T08:02:52;10.43;;;7.20;;
10150;SDS011;5116;52.318;4.644;2023-02-15T08:05:41;14.07;;;8.40;;
10150;SDS011;5116;52.318;4.644;2023-02-15T08:08:11;11.97;;;8.20;;
10150;SDS011;5116;52.318;4.644;2023-02-15T08:11:04;8.63;;;6.77;;
10150;SDS011;5116;52.318;4.644;2023-02-15T08:14:44;11.13;;;8.27;;
10150;SDS011;5116;52.318;4.644;2023-02-15T08:17:45;16.15;;;10.45;;
10150;SDS011;5116;52.318;4.644;2023-02-15T08:20:52;12.37;;;8.60;;
10150;SDS011;5116;52.318;4.644;2023-02-15T08:23:23;12.87;;;7.73;;
10150;SDS011;5116;52.318;4.644;2023-02-15T08:25:55;12.17;;;8.63;;
10150;SDS011;5116;52.318;4.644;2023-02-15T08:28:30;10.87;;;8.57;;
10150;SDS011;5116;52.318;4.644;2023-02-15T08:31:06;9.97;;;6.87;;
10150;SDS011;5116;52.318;4.644;2023-02-15T08:33:38;10.03;;;7.53;;
10150;SDS011;5116;52.318;4.644;2023-02-15T08:36:11;15.43;;;7.70;;
10150;SDS011;5116;52.318;4.644;2023-02-15T08:38:40;14.90;;;8.73;;
10150;SDS011;5116;52.318;4.644;2023-02-15T08:41:11;13.10;;;8.23;;
10150;SDS011;5116;52.318;4.644;2023-02-15T08:43:39;12.87;;;9.17;;
10150;SDS011;5116;52.318;4.644;2023-02-15T08:46:10;10.50;;;7.57;;
10150;SDS011;5116;52.318;4.644;2023-02-15T08:48:38;8.20;;;6.57;;
10150;SDS011;5116;52.318;4.644;2023-02-15T08:51:09;12.70;;;8.07;;
10150;SDS011;5116;52.318;4.644;2023-02-15T08:53:46;9.97;;;8.03;;
10150;SDS011;5116;52.318;4.644;2023-02-15T08:57:01;16.67;;;9.33;;
10150;SDS011;5116;52.318;4.644;2023-02-15T08:59:34;10.47;;;7.43;;
10150;SDS011;5116;52.318;4.644;2023-02-15T09:02:14;15.03;;;7.43;;
10150;SDS011;5116;52.318;4.644;2023-02-15T09:04:50;13.73;;;8.60;;
10150;SDS011;5116;52.318;4.644;2023-02-15T09:07:24;12.43;;;8.37;;
10150;SDS011;5116;52.318;4.644;2023-02-15T09:09:57;12.70;;;8.97;;
10150;SDS011;5116;52.318;4.644;2023-02-15T09:12:26;13.27;;;9.40;;
10150;SDS011;5116;52.318;4.644;2023-02-15T09:14:54;9.77;;;7.30;;
10150;SDS011;5116;52.318;4.644;2023-02-15T09:17:21;15.13;;;9.93;;
10150;SDS011;5116;52.318;4.644;2023-02-15T09:19:49;21.27;;;10.20;;
10150;SDS011;5116;52.318;4.644;2023-02-15T09:22:19;14.93;;;10.50;;
10150;SDS011;5116;52.318;4.644;2023-02-15T09:24:47;14.20;;;8.47;;
10150;SDS011;5116;52.318;4.644;2023-02-15T09:27:15;16.10;;;9.37;;
10150;SDS011;5116;52.318;4.644;2023-02-15T09:29:48;10.07;;;8.03;;
10150;SDS011;5116;52.318;4.644;2023-02-15T09:32:16;16.40;;;10.60;;
10150;SDS011;5116;52.318;4.644;2023-02-15T09:34:44;14.97;;;10.33;;
10150;SDS011;5116;52.318;4.644;2023-02-15T09:37:14;14.10;;;8.60;;
10150;SDS011;5116;52.318;4.644;2023-02-15T09:39:44;15.83;;;9.87;;
10150;SDS011;5116;52.318;4.644;2023-02-15T09:44:59;17.30;;;10.50;;
10150;SDS011;5116;52.318;4.644;2023-02-15T09:50:20;16.23;;;10.07;;
10150;SDS011;5116;52.318;4.644;2023-02-15T09:55:42;20.53;;;10.87;;
10150;SDS011;5116;52.318;4.644;2023-02-15T09:58:28;11.90;;;8.50;;
10150;SDS011;5116;52.318;4.644;2023-02-15T10:06:22;12.80;;;8.97;;
10150;SDS011;5116;52.318;4.644;2023-02-15T10:09:16;11.77;;;7.53;;
10150;SDS011;5116;52.318;4.644;2023-02-15T10:14:37;14.40;;;9.37;;
10150;SDS011;5116;52.318;4.644;2023-02-15T10:19:40;15.33;;;10.93;;
10150;SDS011;5116;52.318;4.644;2023-02-15T10:22:18;19.60;;;13.57;;
10150;SDS011;5116;52.318;4.644;2023-02-15T10:25:04;20.33;;;13.07;;
10150;SDS011;5116;52.318;4.644;2023-02-15T10:27:41;21.17;;;11.77;;
10150;SDS011;5116;52.318;4.644;2023-02-15T10:30:19;16.70;;;12.10;;
10150;SDS011;5116;52.318;4.644;2023-02-15T10:33:01;18.20;;;11.47;;
10150;SDS011;5116;52.318;4.644;2023-02-15T10:40:55;21.90;;;13.33;;
10150;SDS011;5116;52.318;4.644;2023-02-15T10:43:39;19.00;;;12.50;;
10150;SDS011;5116;52.318;4.644;2023-02-15T10:46:16;20.53;;;13.57;;
10150;SDS011;5116;52.318;4.644;2023-02-15T10:49:01;22.17;;;12.63;;
10150;SDS011;5116;52.318;4.644;2023-02-15T10:51:36;18.50;;;12.67;;
10150;SDS011;5116;52.318;4.644;2023-02-15T10:59:36;20.77;;;13.60;;
10150;SDS011;5116;52.318;4.644;2023-02-15T11:07:15;18.63;;;11.77;;
10150;SDS011;5116;52.318;4.644;2023-02-15T11:09:47;23.53;;;14.83;;
10150;SDS011;5116;52.318;4.644;2023-02-15T11:12:18;24.63;;;12.60;;
10150;SDS011;5116;52.318;4.644;2023-02-15T11:14:52;20.80;;;13.00;;
10150;SDS011;5116;52.318;4.644;2023-02-15T11:17:33;20.93;;;12.93;;
10150;SDS011;5116;52.318;4.644;2023-02-15T11:20:20;22.23;;;14.53;;
10150;SDS011;5116;52.318;4.644;2023-02-15T11:22:54;22.17;;;13.40;;
10150;SDS011;5116;52.318;4.644;2023-02-15T11:25:25;18.87;;;13.37;;
10150;SDS011;5116;52.318;4.644;2023-02-15T11:28:03;20.47;;;13.10;;
10150;SDS011;5116;52.318;4.644;2023-02-15T11:30:40;22.03;;;13.13;;
10150;SDS011;5116;52.318;4.644;2023-02-15T11:33:18;20.00;;;12.00;;
10150;SDS011;5116;52.318;4.644;2023-02-15T11:36:07;18.87;;;12.87;;
10150;SDS011;5116;52.318;4.644;2023-02-15T11:38:42;18.87;;;12.53;;
10150;SDS011;5116;52.318;4.644;2023-02-15T11:41:11;18.37;;;12.20;;
10150;SDS011;5116;52.318;4.644;2023-02-15T11:46:47;19.73;;;14.30;;
10150;SDS011;5116;52.318;4.644;2023-02-15T11:49:20;18.73;;;12.87;;
10150;SDS011;5116;52.318;4.644;2023-02-15T11:51:49;30.50;;;14.90;;
10150;SDS011;5116;52.318;4.644;2023-02-15T11:54:21;21.57;;;13.43;;
10150;SDS011;5116;52.318;4.644;2023-02-15T11:57:33;22.10;;;13.87;;
10150;SDS011;5116;52.318;4.644;2023-02-15T12:00:14;23.07;;;14.17;;
10150;SDS011;5116;52.318;4.644;2023-02-15T12:02:52;22.57;;;13.27;;
10150;SDS011;5116;52.318;4.644;2023-02-15T12:05:24;20.83;;;12.63;;
10150;SDS011;5116;52.318;4.644;2023-02-15T12:07:54;20.93;;;11.60;;
10150;SDS011;5116;52.318;4.644;2023-02-15T12:10:27;20.27;;;13.83;;
10150;SDS011;5116;52.318;4.644;2023-02-15T12:13:15;22.43;;;13.43;;
10150;SDS011;5116;52.318;4.644;2023-02-15T12:15:44;23.13;;;13.53;;
10150;SDS011;5116;52.318;4.644;2023-02-15T12:18:33;27.80;;;14.13;;
10150;SDS011;5116;52.318;4.644;2023-02-15T12:21:03;22.10;;;13.03;;
10150;SDS011;5116;52.318;4.644;2023-02-15T12:23:32;25.70;;;12.27;;
10150;SDS011;5116;52.318;4.644;2023-02-15T12:26:03;28.13;;;14.27;;
10150;SDS011;5116;52.318;4.644;2023-02-15T12:28:33;19.80;;;13.80;;
10150;SDS011;5116;52.318;4.644;2023-02-15T12:31:10;23.30;;;13.43;;
10150;SDS011;5116;52.318;4.644;2023-02-15T12:33:46;25.27;;;14.80;;
10150;SDS011;5116;52.318;4.644;2023-02-15T12:36:15;18.50;;;12.47;;
10150;SDS011;5116;52.318;4.644;2023-02-15T12:41:32;25.77;;;15.60;;
10150;SDS011;5116;52.318;4.644;2023-02-15T12:50:10;24.83;;;14.63;;
10150;SDS011;5116;52.318;4.644;2023-02-15T12:52:48;19.97;;;13.27;;
10150;SDS011;5116;52.318;4.644;2023-02-15T12:55:23;24.87;;;15.67;;
10150;SDS011;5116;52.318;4.644;2023-02-15T13:00:40;21.47;;;13.80;;
10150;SDS011;5116;52.318;4.644;2023-02-15T13:03:17;27.53;;;14.40;;
10150;SDS011;5116;52.318;4.644;2023-02-15T13:05:48;23.37;;;13.83;;
10150;SDS011;5116;52.318;4.644;2023-02-15T13:08:19;24.40;;;13.33;;
10150;SDS011;5116;52.318;4.644;2023-02-15T13:13:33;21.17;;;13.60;;
10150;SDS011;5116;52.318;4.644;2023-02-15T13:16:05;24.93;;;13.20;;
10150;SDS011;5116;52.318;4.644;2023-02-15T13:18:43;18.63;;;12.83;;
10150;SDS011;5116;52.318;4.644;2023-02-15T13:21:12;21.90;;;14.23;;
10150;SDS011;5116;52.318;4.644;2023-02-15T13:23:42;24.27;;;13.87;;
10150;SDS011;5116;52.318;4.644;2023-02-15T13:26:14;20.17;;;12.97;;
10150;SDS011;5116;52.318;4.644;2023-02-15T13:28:47;27.97;;;15.53;;
10150;SDS011;5116;52.318;4.644;2023-02-15T13:31:18;25.57;;;14.30;;
10150;SDS011;5116;52.318;4.644;2023-02-15T13:33:51;28.10;;;16.27;;
10150;SDS011;5116;52.318;4.644;2023-02-15T13:39:13;18.13;;;13.27;;
10150;SDS011;5116;52.318;4.644;2023-02-15T13:47:00;24.77;;;13.77;;
10150;SDS011;5116;52.318;4.644;2023-02-15T13:49:33;23.57;;;13.77;;
10150;SDS011;5116;52.318;4.644;2023-02-15T13:52:18;27.00;;;16.03;;
10150;SDS011;5116;52.318;4.644;2023-02-15T13:57:49;22.70;;;14.20;;
10150;SDS011;5116;52.318;4.644;2023-02-15T14:05:54;26.30;;;14.97;;
10150;SDS011;5116;52.318;4.644;2023-02-15T14:08:39;25.20;;;14.97;;
10150;SDS011;5116;52.318;4.644;2023-02-15T14:14:02;25.07;;;13.23;;
10150;SDS011;5116;52.318;4.644;2023-02-15T14:19:10;20.23;;;13.63;;
10150;SDS011;5116;52.318;4.644;2023-02-15T14:24:18;22.17;;;13.90;;
10150;SDS011;5116;52.318;4.644;2023-02-15T14:31:53;21.10;;;14.17;;
10150;SDS011;5116;52.318;4.644;2023-02-15T14:34:23;23.27;;;13.97;;
10150;SDS011;5116;52.318;4.644;2023-02-15T14:36:52;22.93;;;14.00;;
10150;SDS011;5116;52.318;4.644;2023-02-15T14:39:31;20.40;;;13.63;;
10150;SDS011;5116;52.318;4.644;2023-02-15T14:45:06;24.37;;;13.73;;
10150;SDS011;5116;52.318;4.644;2023-02-15T14:47:42;26.60;;;14.00;;
10150;SDS011;5116;52.318;4.644;2023-02-15T14:55:46;25.37;;;13.57;;
10150;SDS011;5116;52.318;4.644;2023-02-15T14:58:20;24.13;;;14.27;;
10150;SDS011;5116;52.318;4.644;2023-02-15T15:00:47;25.93;;;14.63;;
10150;SDS011;5116;52.318;4.644;2023-02-15T15:03:20;18.77;;;13.90;;
10150;SDS011;5116;52.318;4.644;2023-02-15T15:05:50;24.47;;;14.20;;
10150;SDS011;5116;52.318;4.644;2023-02-15T15:08:36;22.47;;;14.10;;
10150;SDS011;5116;52.318;4.644;2023-02-15T15:14:10;24.83;;;14.20;;
10150;SDS011;5116;52.318;4.644;2023-02-15T15:19:09;25.70;;;14.37;;
10150;SDS011;5116;52.318;4.644;2023-02-15T15:29:50;25.87;;;13.97;;
10150;SDS011;5116;52.318;4.644;2023-02-15T15:32:19;22.00;;;13.00;;
10150;SDS011;5116;52.318;4.644;2023-02-15T15:37:46;19.40;;;12.70;;
10150;SDS011;5116;52.318;4.644;2023-02-15T15:40:26;21.93;;;12.57;;
10150;SDS011;5116;52.318;4.644;2023-02-15T15:45:53;19.17;;;11.93;;
10150;SDS011;5116;52.318;4.644;2023-02-15T15:48:29;22.73;;;13.73;;
10150;SDS011;5116;52.318;4.644;2023-02-15T15:51:44;22.07;;;13.10;;
10150;SDS011;5116;52.318;4.644;2023-02-15T15:53:47;22.97;;;12.90;;
10150;SDS011;5116;52.318;4.644;2023-02-15T15:56:18;28.37;;;14.70;;
10150;SDS011;5116;52.318;4.644;2023-02-15T15:58:50;20.00;;;12.97;;
10150;SDS011;5116;52.318;4.644;2023-02-15T16:01:29;20.70;;;13.03;;
10150;SDS011;5116;52.318;4.644;2023-02-15T16:03:58;33.28;;;19.30;;
10150;SDS011;5116;52.318;4.644;2023-02-15T16:06:27;25.07;;;14.13;;
10150;SDS011;5116;52.318;4.644;2023-02-15T16:08:55;29.63;;;16.73;;
10150;SDS011;5116;52.318;4.644;2023-02-15T16:11:25;22.63;;;13.87;;
10150;SDS011;5116;52.318;4.644;2023-02-15T16:13:54;24.47;;;13.83;;
10150;SDS011;5116;52.318;4.644;2023-02-15T16:16:25;23.43;;;14.23;;
10150;SDS011;5116;52.318;4.644;2023-02-15T16:19:01;23.33;;;13.63;;
10150;SDS011;5116;52.318;4.644;2023-02-15T16:21:29;23.43;;;13.13;;
10150;SDS011;5116;52.318;4.644;2023-02-15T16:26:54;23.53;;;13.03;;
10150;SDS011;5116;52.318;4.644;2023-02-15T16:29:30;20.13;;;13.00;;
10150;SDS011;5116;52.318;4.644;2023-02-15T16:32:02;24.50;;;14.07;;
10150;SDS011;5116;52.318;4.644;2023-02-15T16:34:30;22.27;;;14.73;;
10150;SDS011;5116;52.318;4.644;2023-02-15T16:37:15;20.33;;;14.10;;
10150;SDS011;5116;52.318;4.644;2023-02-15T16:39:43;20.90;;;14.07;;
10150;SDS011;5116;52.318;4.644;2023-02-15T16:42:11;23.43;;;12.87;;
10150;SDS011;5116;52.318;4.644;2023-02-15T16:44:39;17.93;;;12.30;;
10150;SDS011;5116;52.318;4.644;2023-02-15T16:47:17;27.20;;;14.73;;
10150;SDS011;5116;52.318;4.644;2023-02-15T16:49:47;22.13;;;12.87;;
10150;SDS011;5116;52.318;4.644;2023-02-15T16:52:18;23.73;;;13.83;;
10150;SDS011;5116;52.318;4.644;2023-02-15T16:54:48;23.63;;;13.07;;
10150;SDS011;5116;52.318;4.644;2023-02-15T16:57:20;22.27;;;12.17;;
10150;SDS011;5116;52.318;4.644;2023-02-15T16:59:49;19.77;;;12.93;;
10150;SDS011;5116;52.318;4.644;2023-02-15T17:02:26;23.23;;;13.53;;
10150;SDS011;5116;52.318;4.644;2023-02-15T17:05:16;20.50;;;12.10;;
10150;SDS011;5116;52.318;4.644;2023-02-15T17:10:33;18.67;;;12.97;;
10150;SDS011;5116;52.318;4.644;2023-02-15T17:13:12;21.87;;;12.90;;
10150;SDS011;5116;52.318;4.644;2023-02-15T17:20:55;22.37;;;13.80;;
10150;SDS011;5116;52.318;4.644;2023-02-15T17:23:26;22.37;;;13.47;;
10150;SDS011;5116;52.318;4.644;2023-02-15T17:25:55;23.03;;;11.23;;
10150;SDS011;5116;52.318;4.644;2023-02-15T17:28:24;22.10;;;13.37;;
10150;SDS011;5116;52.318;4.644;2023-02-15T17:30:52;22.90;;;13.93;;
10150;SDS011;5116;52.318;4.644;2023-02-15T17:33:26;20.10;;;12.57;;
10150;SDS011;5116;52.318;4.644;2023-02-15T17:38:32;22.20;;;13.67;;
10150;SDS011;5116;52.318;4.644;2023-02-15T17:40:59;24.83;;;14.80;;
10150;SDS011;5116;52.318;4.644;2023-02-15T17:43:28;19.77;;;12.20;;